Sao Joao do Tigre, Brazil
Current Conditions -  °F | °C
As of 4:00 AM on Friday 24 Oct 2014 (Local Time) from SBKG Reporting Station
Light Rain Light Rain  
Wind Chill: 68°   Ceiling: 500
Heat Index: 68°   Visibility: 3mi
Dew Point: 68°   Wind: 6mph
Humidity: 100%   Direction: 130°SE
Pressure: NA   Gusts: NA
Location:  8.07°S, 36.85°W
Report Text: SBKG 240700Z 13005KT 5000 -RA BR BKN005 BKN010 BKN070 20/20 Q1015
Loading
Personal Weather Stations






























Interactive Weather Map
Tropical Storm Tracking
New forecast layout! Learn more

10-Day Weather Forecast

Advertisements
Track Severe Weather on mobile